createdAt,value
2023-04-29T00:02:11.822Z,25.80
2023-04-29T00:04:38.593Z,25.81
2023-04-29T00:07:05.258Z,25.77
2023-04-29T00:09:31.654Z,25.73
2023-04-29T00:11:58.071Z,25.83
2023-04-29T00:14:24.924Z,25.75
2023-04-29T00:16:51.692Z,25.78
2023-04-29T00:19:18.606Z,25.88
2023-04-29T00:21:45.059Z,25.87
2023-04-29T00:24:11.585Z,25.83
2023-04-29T00:26:38.424Z,25.90
2023-04-29T00:29:04.861Z,25.86
2023-04-29T00:31:32.710Z,25.85
2023-04-29T00:33:59.538Z,25.87
2023-04-29T00:36:26.330Z,25.86
2023-04-29T00:38:52.731Z,25.92
2023-04-29T00:41:19.639Z,25.88
2023-04-29T00:43:46.091Z,25.85
2023-04-29T00:46:13.692Z,25.78
2023-04-29T00:48:41.369Z,25.80
2023-04-29T00:51:07.870Z,25.73
2023-04-29T00:53:34.937Z,25.84
2023-04-29T00:56:01.786Z,25.89
2023-04-29T00:58:33.348Z,25.93
2023-04-29T01:01:00.027Z,25.80
2023-04-29T01:03:26.882Z,25.77
2023-04-29T01:05:54.755Z,25.80
2023-04-29T01:08:28.893Z,25.81
2023-04-29T01:10:57.902Z,25.81
2023-04-29T01:13:24.298Z,25.75
2023-04-29T01:16:03.630Z,25.70
2023-04-29T01:18:32.839Z,25.68
2023-04-29T01:20:59.823Z,25.67
2023-04-29T01:23:26.981Z,25.68
2023-04-29T01:25:54.259Z,25.76
2023-04-29T01:28:44.448Z,25.77
2023-04-29T01:31:14.782Z,25.82
2023-04-29T01:33:48.776Z,25.87
2023-04-29T01:36:16.587Z,25.82
2023-04-29T01:38:43.241Z,25.82
2023-04-29T01:41:17.194Z,25.81
2023-04-29T01:43:47.616Z,25.79
2023-04-29T01:46:20.897Z,25.73
2023-04-29T01:48:48.736Z,25.77
2023-04-29T01:51:15.331Z,25.76
2023-04-29T01:53:41.804Z,25.76
2023-04-29T01:56:08.337Z,25.78
2023-04-29T01:58:44.812Z,25.76
2023-04-29T02:01:29.625Z,25.74
2023-04-29T02:03:56.243Z,25.82
2023-04-29T02:06:22.984Z,25.81
2023-04-29T02:08:54.929Z,25.82
2023-04-29T02:11:21.522Z,25.80
2023-04-29T02:13:48.109Z,25.80
2023-04-29T02:16:15.555Z,25.81
2023-04-29T02:18:51.952Z,25.73
2023-04-29T02:21:18.385Z,25.78
2023-04-29T02:23:44.753Z,25.81
2023-04-29T02:26:11.935Z,25.74
2023-04-29T02:28:38.724Z,25.64
2023-04-29T02:31:05.357Z,25.71
2023-04-29T02:33:32.853Z,25.73
2023-04-29T02:35:59.752Z,25.64
2023-04-29T02:38:26.251Z,25.68
2023-04-29T02:40:52.747Z,25.72
2023-04-29T02:43:21.197Z,25.68
2023-04-29T02:45:47.697Z,25.70
2023-04-29T02:48:14.753Z,25.73
2023-04-29T02:50:41.522Z,25.74
2023-04-29T02:53:08.011Z,25.64
2023-04-29T02:55:34.560Z,25.58
2023-04-29T02:58:06.999Z,25.54
2023-04-29T03:00:33.512Z,25.65
2023-04-29T03:03:00.100Z,25.56
2023-04-29T03:05:26.828Z,25.58
2023-04-29T03:07:53.981Z,25.56
2023-04-29T03:10:20.482Z,25.50
2023-04-29T03:12:46.870Z,25.45
2023-04-29T03:15:13.339Z,25.53
2023-04-29T03:17:40.192Z,25.43
2023-04-29T03:20:07.780Z,25.40
2023-04-29T03:22:34.924Z,25.47
2023-04-29T03:25:01.637Z,25.43
2023-04-29T03:27:28.308Z,25.39
2023-04-29T03:29:55.163Z,25.38
2023-04-29T03:32:21.765Z,25.48
2023-04-29T03:34:49.328Z,25.43
2023-04-29T03:37:29.753Z,25.38
2023-04-29T03:40:08.881Z,25.42
2023-04-29T03:42:35.721Z,25.36
2023-04-29T03:45:02.733Z,25.36
2023-04-29T03:47:29.741Z,25.39
2023-04-29T03:49:56.153Z,25.37
2023-04-29T03:52:22.552Z,25.38
2023-04-29T03:54:51.552Z,25.37
2023-04-29T03:57:17.970Z,25.41
2023-04-29T03:59:45.450Z,25.40
2023-04-29T04:02:11.960Z,25.54
2023-04-29T04:04:38.680Z,25.66
2023-04-29T04:07:06.015Z,25.67
2023-04-29T04:09:44.813Z,25.68
2023-04-29T04:12:11.222Z,25.63
2023-04-29T04:14:38.315Z,25.60
2023-04-29T04:17:04.751Z,25.50
2023-04-29T04:19:31.793Z,25.41
2023-04-29T04:21:59.272Z,25.35
2023-04-29T04:24:25.751Z,25.30
2023-04-29T04:26:52.112Z,25.45
2023-04-29T04:29:25.984Z,25.40
2023-04-29T04:31:58.410Z,25.47
2023-04-29T04:34:26.245Z,25.46
2023-04-29T04:36:54.640Z,25.61
2023-04-29T04:39:22.258Z,25.54
2023-04-29T04:41:49.384Z,25.71
2023-04-29T04:44:16.493Z,25.65
2023-04-29T04:47:04.123Z,25.65
2023-04-29T04:49:46.155Z,25.62
2023-04-29T04:52:12.683Z,25.58
2023-04-29T04:54:39.202Z,25.44
2023-04-29T04:57:13.312Z,25.36
2023-04-29T04:59:39.740Z,25.36
2023-04-29T05:02:06.204Z,25.35
2023-04-29T05:04:32.658Z,25.34
2023-04-29T05:06:59.133Z,25.44
2023-04-29T05:09:30.938Z,25.38
2023-04-29T05:11:59.346Z,25.34
2023-04-29T05:14:27.395Z,25.30
2023-04-29T05:16:53.914Z,25.28
2023-04-29T05:19:20.474Z,25.26
2023-04-29T05:21:46.899Z,25.49
2023-04-29T05:24:13.301Z,25.60
2023-04-29T05:26:39.840Z,25.71
2023-04-29T05:29:06.829Z,25.71
2023-04-29T05:31:42.639Z,25.74
2023-04-29T05:34:09.213Z,25.70
2023-04-29T05:36:36.611Z,25.67
2023-04-29T05:39:03.528Z,25.71
2023-04-29T05:41:29.947Z,25.75
2023-04-29T05:44:11.367Z,25.69
2023-04-29T05:46:37.853Z,25.77
2023-04-29T05:49:04.361Z,25.74
2023-04-29T05:51:31.802Z,25.58
2023-04-29T05:54:01.694Z,25.51
2023-04-29T05:56:29.686Z,25.50
2023-04-29T05:58:56.212Z,25.45
2023-04-29T06:01:23.032Z,25.51
2023-04-29T06:03:49.680Z,25.49
2023-04-29T06:06:35.009Z,25.58
2023-04-29T06:09:27.953Z,25.41
2023-04-29T06:11:58.783Z,25.43
2023-04-29T06:14:25.598Z,25.38
2023-04-29T06:16:53.653Z,25.51
2023-04-29T06:19:20.049Z,25.48
2023-04-29T06:21:47.874Z,25.48
2023-04-29T06:24:14.538Z,25.41
2023-04-29T06:26:40.978Z,25.33
2023-04-29T06:29:07.570Z,25.28
2023-04-29T06:31:35.969Z,25.25
2023-04-29T06:34:04.049Z,25.24
2023-04-29T06:36:32.207Z,25.23
2023-04-29T06:39:12.870Z,25.22
2023-04-29T06:41:55.018Z,25.23
2023-04-29T06:44:39.728Z,25.28
2023-04-29T06:47:24.608Z,25.26
2023-04-29T06:50:07.076Z,25.28
2023-04-29T06:52:33.577Z,25.37
2023-04-29T06:55:00.156Z,25.30
2023-04-29T06:57:27.133Z,25.45
2023-04-29T06:59:53.660Z,25.41
2023-04-29T07:02:20.455Z,25.40
2023-04-29T07:04:47.112Z,25.41
2023-04-29T07:07:15.690Z,25.37
2023-04-29T07:09:42.193Z,25.36
2023-04-29T07:12:08.634Z,25.40
2023-04-29T07:14:37.338Z,25.38
2023-04-29T07:17:03.812Z,25.41
2023-04-29T07:19:31.294Z,25.35
2023-04-29T07:21:58.195Z,25.41
2023-04-29T07:24:25.334Z,25.40
2023-04-29T07:26:51.745Z,25.35
2023-04-29T07:29:18.184Z,25.58
2023-04-29T07:31:44.615Z,25.68
2023-04-29T07:34:11.231Z,25.55
2023-04-29T07:36:38.703Z,25.61
2023-04-29T07:39:05.987Z,25.55
2023-04-29T07:41:32.458Z,25.50
2023-04-29T07:43:58.899Z,25.51
2023-04-29T07:46:25.487Z,25.48
2023-04-29T07:48:52.978Z,25.37
2023-04-29T07:51:19.467Z,25.23
2023-04-29T07:53:45.897Z,25.16
2023-04-29T07:56:12.366Z,25.08
2023-04-29T07:58:39.488Z,25.07
2023-04-29T08:01:07.059Z,25.06
2023-04-29T08:03:33.876Z,25.03
2023-04-29T08:06:01.565Z,24.94
2023-04-29T08:08:27.996Z,24.85
2023-04-29T08:10:54.475Z,24.86
2023-04-29T08:13:20.840Z,24.84
2023-04-29T08:15:47.348Z,24.85
2023-04-29T08:18:15.015Z,24.83
2023-04-29T08:20:41.708Z,24.81
2023-04-29T08:23:08.117Z,24.77
2023-04-29T08:25:34.520Z,24.79
2023-04-29T08:28:00.953Z,24.94
2023-04-29T08:30:27.370Z,24.93
2023-04-29T08:32:53.890Z,25.04
2023-04-29T08:35:20.510Z,24.95
2023-04-29T08:37:47.664Z,24.93
2023-04-29T08:40:14.082Z,24.96
2023-04-29T08:42:41.187Z,24.99
2023-04-29T08:45:07.758Z,25.02
2023-04-29T08:47:34.421Z,25.07
2023-04-29T08:50:04.532Z,25.05
2023-04-29T08:52:34.215Z,25.06
2023-04-29T08:55:02.583Z,25.06
2023-04-29T08:57:29.794Z,25.16
2023-04-29T08:59:56.278Z,25.16
2023-04-29T09:02:22.939Z,25.27
2023-04-29T09:05:00.729Z,25.37
2023-04-29T09:07:27.220Z,25.36
2023-04-29T09:09:53.697Z,25.37
2023-04-29T09:12:20.195Z,25.30
2023-04-29T09:14:46.748Z,25.33
2023-04-29T09:17:13.205Z,25.40
2023-04-29T09:19:39.607Z,25.40
2023-04-29T09:22:08.970Z,25.46
2023-04-29T09:24:35.470Z,25.32
2023-04-29T09:27:03.392Z,25.36
2023-04-29T09:29:30.800Z,25.31
2023-04-29T09:31:58.578Z,25.34
2023-04-29T09:34:32.202Z,25.35
2023-04-29T09:36:59.188Z,25.38
2023-04-29T09:39:26.223Z,25.39
2023-04-29T09:41:52.719Z,25.42
2023-04-29T09:44:26.088Z,25.43
2023-04-29T09:47:02.680Z,25.41
2023-04-29T09:49:33.508Z,25.42
2023-04-29T09:52:00.480Z,25.41
2023-04-29T09:54:28.565Z,25.61
2023-04-29T09:56:55.718Z,25.73
2023-04-29T09:59:22.734Z,25.76
2023-04-29T10:01:50.189Z,25.73
2023-04-29T10:04:17.462Z,25.66
2023-04-29T10:06:44.638Z,25.51
2023-04-29T10:09:13.571Z,25.53
2023-04-29T10:11:40.069Z,25.40
2023-04-29T10:14:06.532Z,25.37
2023-04-29T10:16:35.099Z,25.23
2023-04-29T10:19:06.925Z,25.19
2023-04-29T10:21:33.380Z,25.21
2023-04-29T10:24:00.035Z,25.17
2023-04-29T10:26:27.354Z,25.12
2023-04-29T10:28:54.498Z,25.10
2023-04-29T10:31:21.662Z,25.08
2023-04-29T10:33:48.149Z,25.10
2023-04-29T10:36:14.960Z,25.14
2023-04-29T10:38:49.511Z,25.26
2023-04-29T10:41:24.725Z,25.20
2023-04-29T10:43:51.957Z,25.25
2023-04-29T10:46:18.363Z,25.29
2023-04-29T10:48:45.155Z,25.37
2023-04-29T10:51:11.788Z,25.39
2023-04-29T10:53:57.924Z,25.52
2023-04-29T10:56:24.623Z,25.50
2023-04-29T10:58:51.446Z,25.36
2023-04-29T11:01:17.965Z,25.41
2023-04-29T11:03:55.960Z,25.47
2023-04-29T11:06:23.376Z,25.37
2023-04-29T11:08:59.381Z,25.31
2023-04-29T11:11:27.782Z,25.31
2023-04-29T11:13:54.768Z,25.27
2023-04-29T11:16:22.449Z,25.25
2023-04-29T11:19:05.013Z,25.20
2023-04-29T11:21:32.675Z,25.24
2023-04-29T11:23:59.109Z,25.22
2023-04-29T11:26:25.756Z,25.30
2023-04-29T11:28:52.276Z,25.26
2023-04-29T11:31:18.713Z,25.28
2023-04-29T11:33:45.181Z,25.28
2023-04-29T11:36:11.569Z,25.26
2023-04-29T11:38:39.512Z,25.27
2023-04-29T11:41:05.921Z,25.29
2023-04-29T11:43:32.335Z,25.40
2023-04-29T11:45:58.804Z,25.50
2023-04-29T11:48:25.700Z,25.57
2023-04-29T11:50:52.581Z,25.62
2023-04-29T11:53:22.384Z,25.58
2023-04-29T11:55:48.837Z,25.54
2023-04-29T11:58:16.298Z,25.66
2023-04-29T12:00:42.694Z,25.77
2023-04-29T12:03:16.018Z,25.79
2023-04-29T12:05:49.540Z,25.73
2023-04-29T12:08:19.378Z,25.76
2023-04-29T12:10:46.867Z,25.88
2023-04-29T12:13:13.270Z,25.90
2023-04-29T12:15:40.358Z,25.80
2023-04-29T12:18:07.105Z,25.70
2023-04-29T12:20:33.548Z,25.63
2023-04-29T12:23:15.694Z,25.72
2023-04-29T12:25:42.573Z,25.80
2023-04-29T12:28:12.889Z,25.85
2023-04-29T12:30:39.414Z,25.87
2023-04-29T12:33:08.129Z,25.67
2023-04-29T12:35:34.683Z,25.66
2023-04-29T12:38:01.335Z,25.56
2023-04-29T12:40:30.074Z,25.47
2023-04-29T12:42:56.749Z,25.47
2023-04-29T12:45:32.613Z,25.44
2023-04-29T12:47:59.285Z,25.42
2023-04-29T12:50:29.828Z,25.38
2023-04-29T12:52:56.453Z,25.41
2023-04-29T12:55:22.985Z,25.41
2023-04-29T12:57:49.654Z,25.42
2023-04-29T13:00:16.838Z,25.39
2023-04-29T13:02:43.432Z,25.41
2023-04-29T13:05:09.983Z,25.43
2023-04-29T13:07:37.151Z,25.44
2023-04-29T13:10:06.391Z,25.42
2023-04-29T13:12:33.066Z,25.38
2023-04-29T13:14:59.755Z,25.41
2023-04-29T13:17:26.463Z,25.40
2023-04-29T13:19:52.988Z,25.38
2023-04-29T13:22:19.456Z,25.42
2023-04-29T13:24:46.560Z,25.40
2023-04-29T13:27:13.132Z,25.42
2023-04-29T13:29:39.641Z,25.42
2023-04-29T13:32:06.180Z,25.42
2023-04-29T13:34:32.724Z,25.42
2023-04-29T13:36:59.240Z,25.41
2023-04-29T13:39:25.839Z,25.38
2023-04-29T13:41:56.172Z,25.38
2023-04-29T13:44:32.907Z,25.38
2023-04-29T13:47:06.334Z,25.39
2023-04-29T13:50:20.115Z,25.43
2023-04-29T13:55:25.870Z,25.41
2023-04-29T14:00:25.499Z,25.42
2023-04-29T14:05:25.393Z,25.42
2023-04-29T14:07:52.197Z,25.42
2023-04-29T14:10:18.682Z,25.41
2023-04-29T14:12:45.143Z,25.43
2023-04-29T14:15:12.129Z,25.43
2023-04-29T14:17:38.634Z,25.40
2023-04-29T14:20:05.390Z,25.42
2023-04-29T14:22:31.836Z,25.44
2023-04-29T14:24:58.262Z,25.44
2023-04-29T14:27:24.721Z,25.42
2023-04-29T14:29:51.213Z,25.44
2023-04-29T14:32:17.576Z,25.55
2023-04-29T14:34:44.056Z,25.48
2023-04-29T14:37:10.623Z,25.62
2023-04-29T14:39:37.121Z,25.64
2023-04-29T14:42:04.398Z,25.62
2023-04-29T14:44:31.186Z,25.65
2023-04-29T14:46:57.712Z,25.89
2023-04-29T14:49:24.179Z,26.01
2023-04-29T14:51:50.621Z,25.97
2023-04-29T14:54:17.259Z,25.90
2023-04-29T14:56:43.820Z,25.98
2023-04-29T14:59:10.452Z,25.91
2023-04-29T15:01:37.010Z,25.87
2023-04-29T15:04:04.424Z,25.87
2023-04-29T15:06:34.382Z,25.92
2023-04-29T15:09:01.086Z,26.02
2023-04-29T15:11:27.966Z,26.03
2023-04-29T15:13:54.407Z,25.95
2023-04-29T15:16:21.006Z,25.96
2023-04-29T15:18:47.471Z,25.89
2023-04-29T15:21:13.908Z,25.87
2023-04-29T15:23:40.474Z,25.88
2023-04-29T15:26:07.760Z,25.85
2023-04-29T15:28:34.237Z,25.81
2023-04-29T15:31:03.696Z,25.80
2023-04-29T15:33:30.160Z,25.91
2023-04-29T15:35:57.713Z,26.01
2023-04-29T15:38:24.119Z,25.98
2023-04-29T15:40:50.611Z,26.03
2023-04-29T15:43:17.079Z,26.03
2023-04-29T15:45:44.396Z,26.07
2023-04-29T15:48:10.967Z,26.11
2023-04-29T15:50:37.526Z,26.14
2023-04-29T15:53:03.980Z,26.05
2023-04-29T15:55:30.420Z,25.93
2023-04-29T15:57:56.878Z,25.44
2023-04-29T16:00:23.251Z,25.04
2023-04-29T16:02:49.706Z,25.12
2023-04-29T16:05:16.157Z,25.19
2023-04-29T16:07:42.608Z,25.25
2023-04-29T16:10:09.894Z,25.26
2023-04-29T16:12:36.435Z,25.26
2023-04-29T16:15:03.307Z,25.38
2023-04-29T16:17:31.372Z,25.41
2023-04-29T16:19:58.302Z,25.55
2023-04-29T16:22:24.774Z,25.53
2023-04-29T16:24:51.230Z,25.52
2023-04-29T16:27:17.720Z,25.59
2023-04-29T16:29:44.223Z,25.63
2023-04-29T16:32:11.202Z,25.63
2023-04-29T16:34:37.852Z,25.65
2023-04-29T16:37:04.279Z,25.61
2023-04-29T16:39:31.214Z,25.60
2023-04-29T16:41:59.456Z,25.58
2023-04-29T16:44:25.976Z,25.55
2023-04-29T16:46:52.794Z,25.56
2023-04-29T16:49:19.671Z,25.54
2023-04-29T16:51:46.132Z,25.54
2023-04-29T16:54:12.639Z,25.55
2023-04-29T16:56:39.073Z,25.58
2023-04-29T16:59:05.538Z,25.57
2023-04-29T17:01:32.282Z,25.61
2023-04-29T17:03:59.364Z,25.67
2023-04-29T17:06:26.207Z,25.71
2023-04-29T17:08:52.884Z,25.83
2023-04-29T17:11:19.318Z,25.88
2023-04-29T17:13:46.336Z,25.77
2023-04-29T17:16:13.818Z,25.75
2023-04-29T17:18:40.360Z,25.71
2023-04-29T17:21:06.803Z,25.62
2023-04-29T17:23:33.347Z,25.61
2023-04-29T17:25:59.826Z,25.57
2023-04-29T17:28:26.550Z,25.50
2023-04-29T17:30:59.823Z,25.57
2023-04-29T17:33:34.276Z,25.50
2023-04-29T17:36:04.169Z,25.51
2023-04-29T17:38:30.643Z,25.54
2023-04-29T17:40:57.062Z,25.70
2023-04-29T17:43:23.524Z,25.72
2023-04-29T17:45:49.927Z,25.67
2023-04-29T17:48:18.497Z,25.62
2023-04-29T17:50:45.391Z,25.59
2023-04-29T17:53:12.053Z,25.60
2023-04-29T17:55:38.896Z,25.70
2023-04-29T17:58:05.630Z,25.70
2023-04-29T18:00:32.056Z,25.75
2023-04-29T18:02:58.640Z,25.76
2023-04-29T18:05:25.161Z,25.70
2023-04-29T18:07:51.573Z,25.68
2023-04-29T18:10:18.057Z,25.65
2023-04-29T18:12:44.464Z,25.54
2023-04-29T18:15:13.957Z,25.53
2023-04-29T18:17:40.598Z,25.52
2023-04-29T18:20:07.935Z,25.47
2023-04-29T18:22:34.411Z,25.36
2023-04-29T18:25:00.865Z,25.41
2023-04-29T18:27:27.455Z,25.37
2023-04-29T18:29:54.197Z,25.32
2023-04-29T18:32:20.981Z,25.38
2023-04-29T18:34:47.451Z,25.35
2023-04-29T18:37:14.134Z,25.35
2023-04-29T18:39:40.553Z,25.36
2023-04-29T18:42:07.034Z,25.41
2023-04-29T18:44:33.470Z,25.43
2023-04-29T18:46:59.885Z,25.54
2023-04-29T18:49:26.319Z,25.49
2023-04-29T18:51:52.829Z,25.55
2023-04-29T18:54:19.364Z,25.61
2023-04-29T18:56:46.682Z,25.57
2023-04-29T18:59:15.804Z,25.62
2023-04-29T19:01:43.366Z,25.66
2023-04-29T19:04:10.333Z,25.72
2023-04-29T19:06:37.007Z,25.72
2023-04-29T19:09:03.747Z,25.74
2023-04-29T19:11:30.307Z,25.70
2023-04-29T19:13:56.798Z,25.81
2023-04-29T19:16:23.476Z,25.76
2023-04-29T19:18:50.037Z,25.86
2023-04-29T19:21:16.825Z,25.80
2023-04-29T19:23:43.345Z,25.75
2023-04-29T19:26:09.862Z,25.82
2023-04-29T19:28:36.255Z,25.88
2023-04-29T19:31:03.313Z,25.92
2023-04-29T19:33:30.676Z,26.02
2023-04-29T19:35:57.225Z,26.08
2023-04-29T19:38:24.352Z,26.06
2023-04-29T19:40:50.788Z,26.10
2023-04-29T19:43:17.973Z,26.06
2023-04-29T19:45:44.457Z,26.07
2023-04-29T19:48:11.188Z,26.10
2023-04-29T19:50:38.149Z,26.15
2023-04-29T19:53:04.677Z,26.16
2023-04-29T19:55:31.268Z,26.11
2023-04-29T19:57:58.549Z,26.14
2023-04-29T20:00:25.160Z,26.02
2023-04-29T20:02:52.287Z,26.09
2023-04-29T20:05:19.767Z,26.09
2023-04-29T20:07:46.279Z,26.14
2023-04-29T20:10:12.801Z,26.16
2023-04-29T20:12:40.306Z,26.01
2023-04-29T20:15:08.144Z,26.11
2023-04-29T20:17:34.756Z,26.13
2023-04-29T20:20:01.847Z,26.08
2023-04-29T20:22:29.256Z,26.14
2023-04-29T20:24:55.706Z,26.17
2023-04-29T20:27:22.319Z,26.07
2023-04-29T20:29:48.809Z,26.08
2023-04-29T20:32:15.448Z,26.08
2023-04-29T20:34:42.172Z,26.14
2023-04-29T20:37:09.665Z,26.20
2023-04-29T20:39:36.596Z,26.14
2023-04-29T20:42:03.217Z,26.21
2023-04-29T20:44:29.986Z,26.24
2023-04-29T20:46:56.497Z,26.24
2023-04-29T20:49:23.146Z,26.25
2023-04-29T20:51:49.671Z,26.27
2023-04-29T20:54:16.107Z,26.27
2023-04-29T20:56:42.555Z,26.29
2023-04-29T20:59:09.010Z,26.28
2023-04-29T21:01:37.541Z,26.28
2023-04-29T21:04:04.608Z,26.24
2023-04-29T21:06:32.087Z,26.22
2023-04-29T21:08:58.683Z,26.23
2023-04-29T21:11:25.239Z,26.23
2023-04-29T21:13:51.966Z,26.24
2023-04-29T21:16:18.891Z,26.24
2023-04-29T21:18:45.496Z,26.27
2023-04-29T21:21:12.088Z,26.26
2023-04-29T21:23:38.830Z,26.27
2023-04-29T21:26:05.224Z,26.27
2023-04-29T21:28:31.716Z,26.28
2023-04-29T21:30:58.294Z,26.26
2023-04-29T21:33:24.838Z,26.25
2023-04-29T21:35:51.566Z,26.25
2023-04-29T21:38:18.391Z,26.26
2023-04-29T21:40:45.124Z,26.26
2023-04-29T21:43:11.611Z,26.26
2023-04-29T21:45:38.024Z,26.24
2023-04-29T21:48:12.880Z,26.24
2023-04-29T21:50:39.273Z,26.25
2023-04-29T21:53:05.698Z,26.23
2023-04-29T21:55:32.202Z,26.19
2023-04-29T21:57:58.750Z,26.07
2023-04-29T22:00:33.067Z,26.11
2023-04-29T22:03:00.632Z,26.13
2023-04-29T22:05:27.294Z,26.16
2023-04-29T22:07:53.841Z,26.17
2023-04-29T22:10:20.389Z,26.17
2023-04-29T22:12:46.872Z,26.18
2023-04-29T22:15:20.970Z,26.16
2023-04-29T22:17:54.874Z,26.16
2023-04-29T22:20:21.455Z,26.10
2023-04-29T22:22:47.939Z,26.08
2023-04-29T22:25:14.474Z,26.03
2023-04-29T22:27:41.113Z,25.99
2023-04-29T22:30:08.316Z,25.99
2023-04-29T22:32:34.813Z,25.99
2023-04-29T22:35:01.512Z,26.01
2023-04-29T22:37:27.971Z,25.97
2023-04-29T22:39:54.645Z,25.96
2023-04-29T22:42:21.360Z,26.00
2023-04-29T22:44:47.829Z,25.95
2023-04-29T22:47:14.353Z,25.88
2023-04-29T22:49:41.045Z,25.92
2023-04-29T22:52:07.590Z,25.82
2023-04-29T22:54:34.037Z,25.77
2023-04-29T22:57:00.673Z,25.74
2023-04-29T22:59:27.144Z,25.73
2023-04-29T23:01:53.731Z,25.68
2023-04-29T23:04:20.426Z,25.69
2023-04-29T23:06:46.950Z,25.65
2023-04-29T23:09:13.493Z,25.64
2023-04-29T23:11:40.002Z,25.70
2023-04-29T23:14:07.611Z,25.68
2023-04-29T23:16:34.095Z,25.68
2023-04-29T23:19:00.528Z,25.61
2023-04-29T23:21:27.124Z,25.60
2023-04-29T23:23:54.066Z,25.65
2023-04-29T23:26:20.828Z,25.58
2023-04-29T23:28:47.275Z,25.58
2023-04-29T23:31:13.740Z,25.61
2023-04-29T23:33:40.277Z,25.59
2023-04-29T23:36:06.734Z,25.60
2023-04-29T23:38:33.123Z,25.66
2023-04-29T23:40:59.526Z,25.61
2023-04-29T23:43:25.929Z,25.60
2023-04-29T23:45:52.915Z,25.56
2023-04-29T23:48:19.410Z,25.60
2023-04-29T23:50:47.115Z,25.57
2023-04-29T23:53:13.529Z,25.60
2023-04-29T23:55:40.039Z,25.57
2023-04-29T23:58:07.576Z,25.51
